sensor_id;sensor_type;location;lat;lon;timestamp;P1;durP1;ratioP1;P2;durP2;ratioP2
10769;SDS011;5437;50.852;4.438;2023-01-28T00:00:28;10.27;;;8.70;;
10769;SDS011;5437;50.852;4.438;2023-01-28T00:02:54;9.93;;;8.77;;
10769;SDS011;5437;50.852;4.438;2023-01-28T00:05:20;9.23;;;8.23;;
10769;SDS011;5437;50.852;4.438;2023-01-28T00:07:48;9.88;;;8.35;;
10769;SDS011;5437;50.852;4.438;2023-01-28T00:10:14;11.27;;;8.60;;
10769;SDS011;5437;50.852;4.438;2023-01-28T00:12:40;10.10;;;8.18;;
10769;SDS011;5437;50.852;4.438;2023-01-28T00:15:06;10.77;;;8.80;;
10769;SDS011;5437;50.852;4.438;2023-01-28T00:17:32;10.23;;;8.60;;
10769;SDS011;5437;50.852;4.438;2023-01-28T00:19:58;10.07;;;8.40;;
10769;SDS011;5437;50.852;4.438;2023-01-28T00:22:24;9.73;;;8.73;;
10769;SDS011;5437;50.852;4.438;2023-01-28T00:24:50;11.02;;;9.23;;
10769;SDS011;5437;50.852;4.438;2023-01-28T00:27:16;10.50;;;9.07;;
10769;SDS011;5437;50.852;4.438;2023-01-28T00:29:42;10.88;;;9.02;;
10769;SDS011;5437;50.852;4.438;2023-01-28T00:32:08;10.93;;;9.13;;
10769;SDS011;5437;50.852;4.438;2023-01-28T00:34:34;11.35;;;9.15;;
10769;SDS011;5437;50.852;4.438;2023-01-28T00:37:01;11.45;;;9.63;;
10769;SDS011;5437;50.852;4.438;2023-01-28T00:39:27;10.60;;;8.40;;
10769;SDS011;5437;50.852;4.438;2023-01-28T00:41:53;10.85;;;8.75;;
10769;SDS011;5437;50.852;4.438;2023-01-28T00:44:19;10.43;;;9.20;;
10769;SDS011;5437;50.852;4.438;2023-01-28T00:46:46;10.95;;;8.65;;
10769;SDS011;5437;50.852;4.438;2023-01-28T00:49:12;10.20;;;9.13;;
10769;SDS011;5437;50.852;4.438;2023-01-28T00:51:38;10.43;;;8.73;;
10769;SDS011;5437;50.852;4.438;2023-01-28T00:54:04;10.38;;;8.50;;
10769;SDS011;5437;50.852;4.438;2023-01-28T00:56:31;10.10;;;8.35;;
10769;SDS011;5437;50.852;4.438;2023-01-28T00:58:57;11.00;;;8.75;;
10769;SDS011;5437;50.852;4.438;2023-01-28T01:01:24;9.35;;;8.32;;
10769;SDS011;5437;50.852;4.438;2023-01-28T01:03:51;9.75;;;8.35;;
10769;SDS011;5437;50.852;4.438;2023-01-28T01:06:26;9.77;;;8.27;;
10769;SDS011;5437;50.852;4.438;2023-01-28T01:08:52;10.43;;;8.55;;
10769;SDS011;5437;50.852;4.438;2023-01-28T01:11:18;9.80;;;8.35;;
10769;SDS011;5437;50.852;4.438;2023-01-28T01:13:48;9.52;;;8.52;;
10769;SDS011;5437;50.852;4.438;2023-01-28T01:16:15;10.40;;;8.10;;
10769;SDS011;5437;50.852;4.438;2023-01-28T01:18:41;10.55;;;8.57;;
10769;SDS011;5437;50.852;4.438;2023-01-28T01:21:09;10.27;;;8.43;;
10769;SDS011;5437;50.852;4.438;2023-01-28T01:23:35;9.45;;;8.05;;
10769;SDS011;5437;50.852;4.438;2023-01-28T01:26:02;8.95;;;7.97;;
10769;SDS011;5437;50.852;4.438;2023-01-28T01:28:28;9.73;;;8.32;;
10769;SDS011;5437;50.852;4.438;2023-01-28T01:30:58;9.48;;;8.15;;
10769;SDS011;5437;50.852;4.438;2023-01-28T01:33:24;8.35;;;7.47;;
10769;SDS011;5437;50.852;4.438;2023-01-28T01:35:53;8.65;;;7.75;;
10769;SDS011;5437;50.852;4.438;2023-01-28T01:38:19;9.20;;;7.97;;
10769;SDS011;5437;50.852;4.438;2023-01-28T01:40:45;9.60;;;8.20;;
10769;SDS011;5437;50.852;4.438;2023-01-28T01:43:19;9.55;;;7.70;;
10769;SDS011;5437;50.852;4.438;2023-01-28T01:45:56;9.63;;;7.90;;
10769;SDS011;5437;50.852;4.438;2023-01-28T01:48:25;10.07;;;8.00;;
10769;SDS011;5437;50.852;4.438;2023-01-28T01:50:55;9.63;;;8.32;;
10769;SDS011;5437;50.852;4.438;2023-01-28T01:53:23;10.30;;;8.02;;
10769;SDS011;5437;50.852;4.438;2023-01-28T01:55:50;10.52;;;8.43;;
10769;SDS011;5437;50.852;4.438;2023-01-28T01:58:17;11.85;;;9.32;;
10769;SDS011;5437;50.852;4.438;2023-01-28T02:00:44;10.55;;;9.05;;
10769;SDS011;5437;50.852;4.438;2023-01-28T02:03:11;10.57;;;8.80;;
10769;SDS011;5437;50.852;4.438;2023-01-28T02:05:37;11.82;;;8.98;;
10769;SDS011;5437;50.852;4.438;2023-01-28T02:08:04;12.20;;;9.38;;
10769;SDS011;5437;50.852;4.438;2023-01-28T02:10:46;11.80;;;9.45;;
10769;SDS011;5437;50.852;4.438;2023-01-28T02:13:14;11.75;;;9.18;;
10769;SDS011;5437;50.852;4.438;2023-01-28T02:15:41;11.27;;;9.02;;
10769;SDS011;5437;50.852;4.438;2023-01-28T02:18:07;11.02;;;8.55;;
10769;SDS011;5437;50.852;4.438;2023-01-28T02:23:32;11.95;;;9.10;;
10769;SDS011;5437;50.852;4.438;2023-01-28T02:26:16;12.85;;;9.30;;
10769;SDS011;5437;50.852;4.438;2023-01-28T02:28:47;12.02;;;9.10;;
10769;SDS011;5437;50.852;4.438;2023-01-28T02:31:17;12.15;;;9.63;;
10769;SDS011;5437;50.852;4.438;2023-01-28T02:36:16;12.10;;;9.73;;
10769;SDS011;5437;50.852;4.438;2023-01-28T02:38:47;11.60;;;8.88;;
10769;SDS011;5437;50.852;4.438;2023-01-28T02:41:20;11.73;;;8.95;;
10769;SDS011;5437;50.852;4.438;2023-01-28T02:43:47;11.23;;;8.75;;
10769;SDS011;5437;50.852;4.438;2023-01-28T02:49:01;11.65;;;9.25;;
10769;SDS011;5437;50.852;4.438;2023-01-28T02:54:10;12.20;;;9.60;;
10769;SDS011;5437;50.852;4.438;2023-01-28T02:59:12;12.27;;;8.65;;
10769;SDS011;5437;50.852;4.438;2023-01-28T03:07:30;11.88;;;9.20;;
10769;SDS011;5437;50.852;4.438;2023-01-28T03:09:59;11.38;;;9.05;;
10769;SDS011;5437;50.852;4.438;2023-01-28T03:12:28;12.55;;;9.43;;
10769;SDS011;5437;50.852;4.438;2023-01-28T03:15:18;12.18;;;8.60;;
10769;SDS011;5437;50.852;4.438;2023-01-28T03:18:05;13.43;;;9.75;;
10769;SDS011;5437;50.852;4.438;2023-01-28T03:23:49;11.82;;;8.93;;
10769;SDS011;5437;50.852;4.438;2023-01-28T03:26:37;11.75;;;8.85;;
10769;SDS011;5437;50.852;4.438;2023-01-28T03:29:23;12.23;;;8.98;;
10769;SDS011;5437;50.852;4.438;2023-01-28T03:32:09;12.38;;;8.85;;
10769;SDS011;5437;50.852;4.438;2023-01-28T03:34:55;12.32;;;8.80;;
10769;SDS011;5437;50.852;4.438;2023-01-28T03:37:39;12.10;;;8.73;;
10769;SDS011;5437;50.852;4.438;2023-01-28T03:40:05;13.75;;;9.32;;
10769;SDS011;5437;50.852;4.438;2023-01-28T03:42:32;12.00;;;9.20;;
10769;SDS011;5437;50.852;4.438;2023-01-28T03:44:58;11.02;;;8.85;;
10769;SDS011;5437;50.852;4.438;2023-01-28T03:47:28;11.90;;;8.55;;
10769;SDS011;5437;50.852;4.438;2023-01-28T03:49:55;12.15;;;8.82;;
10769;SDS011;5437;50.852;4.438;2023-01-28T03:52:22;12.35;;;9.07;;
10769;SDS011;5437;50.852;4.438;2023-01-28T03:54:49;12.10;;;8.98;;
10769;SDS011;5437;50.852;4.438;2023-01-28T03:57:17;11.50;;;8.65;;
10769;SDS011;5437;50.852;4.438;2023-01-28T03:59:44;11.05;;;8.38;;
10769;SDS011;5437;50.852;4.438;2023-01-28T04:02:10;11.57;;;8.52;;
10769;SDS011;5437;50.852;4.438;2023-01-28T04:04:37;12.35;;;8.57;;
10769;SDS011;5437;50.852;4.438;2023-01-28T04:07:03;10.75;;;8.05;;
10769;SDS011;5437;50.852;4.438;2023-01-28T04:09:30;11.60;;;8.38;;
10769;SDS011;5437;50.852;4.438;2023-01-28T04:11:56;11.23;;;8.27;;
10769;SDS011;5437;50.852;4.438;2023-01-28T04:14:22;10.70;;;8.18;;
10769;SDS011;5437;50.852;4.438;2023-01-28T04:16:48;11.60;;;8.20;;
10769;SDS011;5437;50.852;4.438;2023-01-28T04:19:14;11.75;;;8.70;;
10769;SDS011;5437;50.852;4.438;2023-01-28T04:21:40;11.25;;;7.97;;
10769;SDS011;5437;50.852;4.438;2023-01-28T04:24:06;12.52;;;8.50;;
10769;SDS011;5437;50.852;4.438;2023-01-28T04:26:33;11.90;;;8.50;;
10769;SDS011;5437;50.852;4.438;2023-01-28T04:29:00;11.77;;;8.45;;
10769;SDS011;5437;50.852;4.438;2023-01-28T04:31:26;11.38;;;8.10;;
10769;SDS011;5437;50.852;4.438;2023-01-28T04:33:52;10.98;;;8.25;;
10769;SDS011;5437;50.852;4.438;2023-01-28T04:36:18;10.57;;;8.23;;
10769;SDS011;5437;50.852;4.438;2023-01-28T04:38:44;10.82;;;7.80;;
10769;SDS011;5437;50.852;4.438;2023-01-28T04:41:10;10.70;;;8.20;;
10769;SDS011;5437;50.852;4.438;2023-01-28T04:43:36;11.85;;;8.05;;
10769;SDS011;5437;50.852;4.438;2023-01-28T04:46:02;11.70;;;8.85;;
10769;SDS011;5437;50.852;4.438;2023-01-28T04:48:28;11.70;;;8.65;;
10769;SDS011;5437;50.852;4.438;2023-01-28T04:50:55;12.55;;;8.85;;
10769;SDS011;5437;50.852;4.438;2023-01-28T04:53:21;11.20;;;8.60;;
10769;SDS011;5437;50.852;4.438;2023-01-28T04:55:47;10.98;;;8.18;;
10769;SDS011;5437;50.852;4.438;2023-01-28T04:58:13;11.60;;;8.95;;
10769;SDS011;5437;50.852;4.438;2023-01-28T05:00:39;10.40;;;7.80;;
10769;SDS011;5437;50.852;4.438;2023-01-28T05:03:05;11.48;;;8.25;;
10769;SDS011;5437;50.852;4.438;2023-01-28T05:05:32;12.15;;;8.75;;
10769;SDS011;5437;50.852;4.438;2023-01-28T05:07:58;11.95;;;8.98;;
10769;SDS011;5437;50.852;4.438;2023-01-28T05:10:24;12.63;;;9.63;;
10769;SDS011;5437;50.852;4.438;2023-01-28T05:12:51;12.38;;;9.20;;
10769;SDS011;5437;50.852;4.438;2023-01-28T05:15:17;10.93;;;9.27;;
10769;SDS011;5437;50.852;4.438;2023-01-28T05:17:44;12.48;;;9.75;;
10769;SDS011;5437;50.852;4.438;2023-01-28T05:20:11;13.00;;;9.50;;
10769;SDS011;5437;50.852;4.438;2023-01-28T05:22:38;12.27;;;9.55;;
10769;SDS011;5437;50.852;4.438;2023-01-28T05:25:04;12.60;;;9.10;;
10769;SDS011;5437;50.852;4.438;2023-01-28T05:27:30;11.88;;;9.55;;
10769;SDS011;5437;50.852;4.438;2023-01-28T05:29:57;12.35;;;9.52;;
10769;SDS011;5437;50.852;4.438;2023-01-28T05:32:23;13.48;;;9.52;;
10769;SDS011;5437;50.852;4.438;2023-01-28T05:34:49;14.07;;;9.82;;
10769;SDS011;5437;50.852;4.438;2023-01-28T05:37:15;13.13;;;9.82;;
10769;SDS011;5437;50.852;4.438;2023-01-28T05:39:41;13.02;;;9.73;;
10769;SDS011;5437;50.852;4.438;2023-01-28T05:42:07;12.00;;;8.98;;
10769;SDS011;5437;50.852;4.438;2023-01-28T05:44:33;11.10;;;8.75;;
10769;SDS011;5437;50.852;4.438;2023-01-28T05:47:01;11.90;;;8.77;;
10769;SDS011;5437;50.852;4.438;2023-01-28T05:49:27;11.90;;;8.90;;
10769;SDS011;5437;50.852;4.438;2023-01-28T05:51:53;12.07;;;8.90;;
10769;SDS011;5437;50.852;4.438;2023-01-28T05:54:20;12.77;;;9.48;;
10769;SDS011;5437;50.852;4.438;2023-01-28T05:56:46;11.55;;;9.02;;
10769;SDS011;5437;50.852;4.438;2023-01-28T05:59:12;13.73;;;9.05;;
10769;SDS011;5437;50.852;4.438;2023-01-28T06:01:39;13.18;;;9.27;;
10769;SDS011;5437;50.852;4.438;2023-01-28T06:04:05;12.93;;;9.52;;
10769;SDS011;5437;50.852;4.438;2023-01-28T06:06:31;12.73;;;9.50;;
10769;SDS011;5437;50.852;4.438;2023-01-28T06:08:57;11.98;;;9.02;;
10769;SDS011;5437;50.852;4.438;2023-01-28T06:11:23;12.18;;;9.10;;
10769;SDS011;5437;50.852;4.438;2023-01-28T06:13:49;12.82;;;9.77;;
10769;SDS011;5437;50.852;4.438;2023-01-28T06:16:15;13.93;;;9.75;;
10769;SDS011;5437;50.852;4.438;2023-01-28T06:18:41;12.10;;;9.25;;
10769;SDS011;5437;50.852;4.438;2023-01-28T06:21:08;13.25;;;9.55;;
10769;SDS011;5437;50.852;4.438;2023-01-28T06:23:34;12.23;;;8.73;;
10769;SDS011;5437;50.852;4.438;2023-01-28T06:26:00;13.32;;;9.80;;
10769;SDS011;5437;50.852;4.438;2023-01-28T06:28:26;13.60;;;9.77;;
10769;SDS011;5437;50.852;4.438;2023-01-28T06:30:53;12.25;;;9.45;;
10769;SDS011;5437;50.852;4.438;2023-01-28T06:33:20;11.70;;;9.05;;
10769;SDS011;5437;50.852;4.438;2023-01-28T06:35:46;11.10;;;9.02;;
10769;SDS011;5437;50.852;4.438;2023-01-28T06:38:12;12.05;;;8.98;;
10769;SDS011;5437;50.852;4.438;2023-01-28T06:40:39;10.38;;;8.70;;
10769;SDS011;5437;50.852;4.438;2023-01-28T06:43:05;12.30;;;9.27;;
10769;SDS011;5437;50.852;4.438;2023-01-28T06:45:31;11.27;;;9.10;;
10769;SDS011;5437;50.852;4.438;2023-01-28T06:47:57;11.73;;;9.23;;
10769;SDS011;5437;50.852;4.438;2023-01-28T06:50:24;10.80;;;8.70;;
10769;SDS011;5437;50.852;4.438;2023-01-28T06:52:51;12.25;;;9.43;;
10769;SDS011;5437;50.852;4.438;2023-01-28T06:55:17;11.05;;;9.15;;
10769;SDS011;5437;50.852;4.438;2023-01-28T06:57:43;13.13;;;8.85;;
10769;SDS011;5437;50.852;4.438;2023-01-28T07:00:10;11.05;;;8.65;;
10769;SDS011;5437;50.852;4.438;2023-01-28T07:02:38;11.07;;;8.90;;
10769;SDS011;5437;50.852;4.438;2023-01-28T07:05:04;10.00;;;7.55;;
10769;SDS011;5437;50.852;4.438;2023-01-28T07:07:31;10.15;;;8.15;;
10769;SDS011;5437;50.852;4.438;2023-01-28T07:09:57;11.43;;;8.60;;
10769;SDS011;5437;50.852;4.438;2023-01-28T07:12:23;9.00;;;7.53;;
10769;SDS011;5437;50.852;4.438;2023-01-28T07:14:49;11.52;;;8.07;;
10769;SDS011;5437;50.852;4.438;2023-01-28T07:17:15;11.40;;;8.07;;
10769;SDS011;5437;50.852;4.438;2023-01-28T07:19:41;10.80;;;8.40;;
10769;SDS011;5437;50.852;4.438;2023-01-28T07:22:07;11.60;;;8.48;;
10769;SDS011;5437;50.852;4.438;2023-01-28T07:24:33;11.98;;;8.95;;
10769;SDS011;5437;50.852;4.438;2023-01-28T07:27:00;12.05;;;9.32;;
10769;SDS011;5437;50.852;4.438;2023-01-28T07:29:26;11.18;;;8.65;;
10769;SDS011;5437;50.852;4.438;2023-01-28T07:31:52;10.57;;;8.35;;
10769;SDS011;5437;50.852;4.438;2023-01-28T07:34:18;10.90;;;8.25;;
10769;SDS011;5437;50.852;4.438;2023-01-28T07:36:44;11.38;;;8.77;;
10769;SDS011;5437;50.852;4.438;2023-01-28T07:39:10;12.25;;;8.63;;
10769;SDS011;5437;50.852;4.438;2023-01-28T07:41:36;11.65;;;8.82;;
10769;SDS011;5437;50.852;4.438;2023-01-28T07:44:02;12.77;;;9.35;;
10769;SDS011;5437;50.852;4.438;2023-01-28T07:46:31;11.45;;;9.23;;
10769;SDS011;5437;50.852;4.438;2023-01-28T07:48:57;11.68;;;9.30;;
10769;SDS011;5437;50.852;4.438;2023-01-28T07:51:23;12.15;;;9.30;;
10769;SDS011;5437;50.852;4.438;2023-01-28T07:53:49;11.82;;;9.13;;
10769;SDS011;5437;50.852;4.438;2023-01-28T07:56:15;12.77;;;9.63;;
10769;SDS011;5437;50.852;4.438;2023-01-28T07:58:41;11.88;;;9.32;;
10769;SDS011;5437;50.852;4.438;2023-01-28T08:01:07;10.20;;;8.60;;
10769;SDS011;5437;50.852;4.438;2023-01-28T08:03:33;11.30;;;8.45;;
10769;SDS011;5437;50.852;4.438;2023-01-28T08:06:00;11.02;;;8.85;;
10769;SDS011;5437;50.852;4.438;2023-01-28T08:08:26;11.43;;;8.10;;
10769;SDS011;5437;50.852;4.438;2023-01-28T08:10:52;11.30;;;8.77;;
10769;SDS011;5437;50.852;4.438;2023-01-28T08:13:18;11.68;;;8.60;;
10769;SDS011;5437;50.852;4.438;2023-01-28T08:15:44;11.15;;;8.63;;
10769;SDS011;5437;50.852;4.438;2023-01-28T08:18:11;11.30;;;9.15;;
10769;SDS011;5437;50.852;4.438;2023-01-28T08:20:38;12.55;;;9.15;;
10769;SDS011;5437;50.852;4.438;2023-01-28T08:25:30;10.60;;;8.68;;
10769;SDS011;5437;50.852;4.438;2023-01-28T08:27:56;11.60;;;9.02;;
10769;SDS011;5437;50.852;4.438;2023-01-28T08:30:22;13.18;;;9.23;;
10769;SDS011;5437;50.852;4.438;2023-01-28T08:32:48;12.70;;;9.18;;
10769;SDS011;5437;50.852;4.438;2023-01-28T08:35:14;12.30;;;9.40;;
10769;SDS011;5437;50.852;4.438;2023-01-28T08:37:40;11.13;;;8.75;;
10769;SDS011;5437;50.852;4.438;2023-01-28T08:40:06;13.35;;;9.15;;
10769;SDS011;5437;50.852;4.438;2023-01-28T08:42:33;12.50;;;9.15;;
10769;SDS011;5437;50.852;4.438;2023-01-28T08:44:59;12.02;;;9.32;;
10769;SDS011;5437;50.852;4.438;2023-01-28T08:47:25;13.27;;;9.23;;
10769;SDS011;5437;50.852;4.438;2023-01-28T08:49:51;12.57;;;9.30;;
10769;SDS011;5437;50.852;4.438;2023-01-28T08:52:17;12.65;;;9.63;;
10769;SDS011;5437;50.852;4.438;2023-01-28T08:54:43;12.25;;;9.52;;
10769;SDS011;5437;50.852;4.438;2023-01-28T08:57:09;13.63;;;9.93;;
10769;SDS011;5437;50.852;4.438;2023-01-28T08:59:35;12.98;;;9.73;;
10769;SDS011;5437;50.852;4.438;2023-01-28T09:02:08;13.85;;;10.05;;
10769;SDS011;5437;50.852;4.438;2023-01-28T09:04:36;12.80;;;9.93;;
10769;SDS011;5437;50.852;4.438;2023-01-28T09:07:02;15.60;;;10.13;;
10769;SDS011;5437;50.852;4.438;2023-01-28T09:09:29;13.52;;;9.80;;
10769;SDS011;5437;50.852;4.438;2023-01-28T09:11:55;14.63;;;10.43;;
10769;SDS011;5437;50.852;4.438;2023-01-28T09:14:21;14.23;;;10.30;;
10769;SDS011;5437;50.852;4.438;2023-01-28T09:16:47;13.38;;;10.25;;
10769;SDS011;5437;50.852;4.438;2023-01-28T09:19:13;15.02;;;9.95;;
10769;SDS011;5437;50.852;4.438;2023-01-28T09:21:39;12.90;;;9.68;;
10769;SDS011;5437;50.852;4.438;2023-01-28T09:24:09;13.82;;;10.48;;
10769;SDS011;5437;50.852;4.438;2023-01-28T09:26:36;13.57;;;10.60;;
10769;SDS011;5437;50.852;4.438;2023-01-28T09:29:02;13.45;;;9.68;;
10769;SDS011;5437;50.852;4.438;2023-01-28T09:31:28;13.52;;;10.20;;
10769;SDS011;5437;50.852;4.438;2023-01-28T09:33:54;14.57;;;10.15;;
10769;SDS011;5437;50.852;4.438;2023-01-28T09:36:21;13.77;;;9.85;;
10769;SDS011;5437;50.852;4.438;2023-01-28T09:38:47;15.00;;;10.43;;
10769;SDS011;5437;50.852;4.438;2023-01-28T09:41:21;13.32;;;10.18;;
10769;SDS011;5437;50.852;4.438;2023-01-28T09:46:18;14.85;;;10.98;;
10769;SDS011;5437;50.852;4.438;2023-01-28T09:48:50;14.43;;;10.23;;
10769;SDS011;5437;50.852;4.438;2023-01-28T09:53:56;12.82;;;9.50;;
10769;SDS011;5437;50.852;4.438;2023-01-28T09:56:29;14.85;;;10.23;;
10769;SDS011;5437;50.852;4.438;2023-01-28T09:58:56;14.20;;;10.35;;
10769;SDS011;5437;50.852;4.438;2023-01-28T10:01:34;13.82;;;9.88;;
10769;SDS011;5437;50.852;4.438;2023-01-28T10:04:14;13.57;;;9.95;;
10769;SDS011;5437;50.852;4.438;2023-01-28T10:07:03;14.98;;;10.25;;
10769;SDS011;5437;50.852;4.438;2023-01-28T10:19:35;13.80;;;10.27;;
10769;SDS011;5437;50.852;4.438;2023-01-28T10:22:04;14.57;;;11.07;;
10769;SDS011;5437;50.852;4.438;2023-01-28T10:24:35;14.70;;;10.77;;
10769;SDS011;5437;50.852;4.438;2023-01-28T10:27:11;14.18;;;10.60;;
10769;SDS011;5437;50.852;4.438;2023-01-28T10:29:40;14.50;;;10.85;;
10769;SDS011;5437;50.852;4.438;2023-01-28T10:34:38;13.18;;;9.82;;
10769;SDS011;5437;50.852;4.438;2023-01-28T10:37:05;14.18;;;10.70;;
10769;SDS011;5437;50.852;4.438;2023-01-28T10:39:31;15.23;;;11.00;;
10769;SDS011;5437;50.852;4.438;2023-01-28T10:41:57;14.85;;;10.65;;
10769;SDS011;5437;50.852;4.438;2023-01-28T10:44:44;13.57;;;10.65;;
10769;SDS011;5437;50.852;4.438;2023-01-28T10:47:11;14.50;;;10.57;;
10769;SDS011;5437;50.852;4.438;2023-01-28T10:49:48;14.02;;;10.50;;
10769;SDS011;5437;50.852;4.438;2023-01-28T10:52:17;13.98;;;10.20;;
10769;SDS011;5437;50.852;4.438;2023-01-28T10:54:43;12.85;;;9.23;;
10769;SDS011;5437;50.852;4.438;2023-01-28T10:57:10;12.13;;;9.40;;
10769;SDS011;5437;50.852;4.438;2023-01-28T10:59:37;13.02;;;9.82;;
10769;SDS011;5437;50.852;4.438;2023-01-28T11:07:36;12.15;;;9.48;;
10769;SDS011;5437;50.852;4.438;2023-01-28T11:10:02;11.88;;;9.27;;
10769;SDS011;5437;50.852;4.438;2023-01-28T11:12:29;13.32;;;9.60;;
10769;SDS011;5437;50.852;4.438;2023-01-28T11:14:56;15.25;;;9.70;;
10769;SDS011;5437;50.852;4.438;2023-01-28T11:17:23;11.82;;;8.93;;
10769;SDS011;5437;50.852;4.438;2023-01-28T11:19:50;12.20;;;9.25;;
10769;SDS011;5437;50.852;4.438;2023-01-28T11:24:49;13.07;;;9.65;;
10769;SDS011;5437;50.852;4.438;2023-01-28T11:27:16;12.90;;;9.30;;
10769;SDS011;5437;50.852;4.438;2023-01-28T11:29:42;12.10;;;9.00;;
10769;SDS011;5437;50.852;4.438;2023-01-28T11:32:16;12.63;;;9.25;;
10769;SDS011;5437;50.852;4.438;2023-01-28T11:34:47;15.23;;;11.02;;
10769;SDS011;5437;50.852;4.438;2023-01-28T11:37:14;13.57;;;9.55;;
10769;SDS011;5437;50.852;4.438;2023-01-28T11:39:40;12.82;;;9.48;;
10769;SDS011;5437;50.852;4.438;2023-01-28T11:42:10;13.52;;;9.88;;
10769;SDS011;5437;50.852;4.438;2023-01-28T11:44:38;15.70;;;10.05;;
10769;SDS011;5437;50.852;4.438;2023-01-28T11:49:40;13.18;;;9.70;;
10769;SDS011;5437;50.852;4.438;2023-01-28T11:57:24;12.80;;;9.07;;
10769;SDS011;5437;50.852;4.438;2023-01-28T12:07:45;14.82;;;9.40;;
10769;SDS011;5437;50.852;4.438;2023-01-28T12:12:46;14.00;;;9.93;;
